Time;durP1;ratioP1;P1;durP2;ratioP2;P2;SDS_P1;SDS_P2;PMS_P1;PMS_P2;Temp;Humidity;BMP_temperature;BMP_pressure;BME280_temperature;BME280_humidity;BME280_pressure;Samples;Min_cycle;Max_cycle;Signal;HPM_P1;HPM_P2
2022/07/19 00:02:08;;;;;;;13.63;5.78;;;19.10;99.90;;;;;;5063495;28;20053;-79
2022/07/19 00:04:35;;;;;;;10.88;5.35;;;19.10;99.90;;;;;;5019116;28;20064;-77
2022/07/19 00:07:01;;;;;;;12.75;5.78;;;19.00;99.90;;;;;;5014516;28;20045;-78
2022/07/19 00:09:27;;;;;;;8.95;5.60;;;19.00;99.90;;;;;;5030547;28;20086;-76
2022/07/19 00:11:54;;;;;;;10.23;5.15;;;19.00;99.90;;;;;;5053327;28;20040;-78
2022/07/19 00:14:20;;;;;;;10.10;5.10;;;19.00;99.90;;;;;;5017569;28;20040;-79
2022/07/19 00:16:46;;;;;;;9.48;5.63;;;19.00;99.90;;;;;;5015758;28;20176;-78
2022/07/19 00:19:12;;;;;;;9.50;5.63;;;18.90;99.90;;;;;;5009730;28;20072;-78
2022/07/19 00:25:04;;;;;;;10.45;5.57;;;19.00;99.90;;;;;;5061267;28;20048;-78
2022/07/19 00:27:29;;;;;;;9.85;5.53;;;18.90;99.90;;;;;;5014556;28;20038;-78
2022/07/19 00:29:55;;;;;;;8.15;5.75;;;19.00;99.90;;;;;;5015939;28;20451;-80
2022/07/19 00:32:22;;;;;;;9.45;5.75;;;19.00;99.90;;;;;;5030879;28;20029;-77
2022/07/19 00:34:48;;;;;;;14.27;5.57;;;19.00;99.90;;;;;;5032043;28;20045;-78
2022/07/19 00:37:14;;;;;;;10.52;5.15;;;19.00;99.90;;;;;;5052902;28;20049;-78
2022/07/19 00:39:41;;;;;;;9.75;5.07;;;19.00;99.90;;;;;;5017427;28;20107;-78
2022/07/19 00:42:07;;;;;;;7.50;4.93;;;19.00;99.90;;;;;;5054532;28;20370;-78
2022/07/19 00:44:33;;;;;;;7.03;5.25;;;19.00;99.90;;;;;;5038188;28;20479;-80
2022/07/19 00:46:58;;;;;;;19.10;6.18;;;19.00;99.90;;;;;;5023039;28;20049;-77
2022/07/19 00:49:24;;;;;;;11.93;5.57;;;18.90;99.90;;;;;;5026516;28;20041;-75
2022/07/19 00:51:53;;;;;;;10.68;5.50;;;18.90;99.90;;;;;;5072884;28;20460;-78
2022/07/19 00:54:21;;;;;;;8.95;5.20;;;18.80;99.90;;;;;;5048028;28;20158;-79
2022/07/19 00:56:49;;;;;;;10.02;4.72;;;18.80;99.90;;;;;;5018542;28;20045;-78
2022/07/19 00:59:17;;;;;;;10.43;5.10;;;18.80;99.90;;;;;;5040355;28;20033;-80
2022/07/19 01:01:43;;;;;;;10.25;5.38;;;18.80;99.90;;;;;;5023281;28;20033;-80
2022/07/19 01:04:10;;;;;;;11.10;5.40;;;18.70;99.90;;;;;;5029257;28;20091;-78
2022/07/19 01:06:36;;;;;;;11.57;5.75;;;18.70;99.90;;;;;;5055034;28;20076;-79
2022/07/19 01:09:03;;;;;;;9.00;5.30;;;18.70;99.90;;;;;;5027689;28;20044;-78
2022/07/19 01:11:29;;;;;;;9.00;5.85;;;18.70;99.90;;;;;;5035146;28;20036;-81
2022/07/19 01:13:58;;;;;;;10.00;5.90;;;18.70;99.90;;;;;;5019926;28;20387;-80
2022/07/19 01:16:23;;;;;;;9.65;5.68;;;18.70;99.90;;;;;;5025793;28;20040;-79
2022/07/19 01:18:53;;;;;;;10.70;5.97;;;18.70;99.90;;;;;;5041700;28;20041;-78
2022/07/19 01:21:20;;;;;;;10.52;5.55;;;18.70;99.90;;;;;;5034829;28;20043;-79
2022/07/19 01:23:46;;;;;;;12.98;6.05;;;18.60;99.90;;;;;;5016530;28;20052;-80
2022/07/19 01:26:12;;;;;;;10.68;5.90;;;18.60;99.90;;;;;;5014367;28;20155;-77
2022/07/19 01:28:38;;;;;;;12.90;6.05;;;18.50;99.90;;;;;;5035368;28;20765;-77
2022/07/19 01:31:05;;;;;;;10.95;5.65;;;18.50;99.90;;;;;;5050581;28;20471;-78
2022/07/19 01:33:37;;;;;;;10.73;5.93;;;18.50;99.90;;;;;;5021549;28;20044;-79
2022/07/19 01:36:03;;;;;;;10.20;5.95;;;18.40;99.90;;;;;;5029390;28;20041;-80
2022/07/19 01:38:28;;;;;;;9.38;5.70;;;18.40;99.90;;;;;;5022305;28;20044;-79
2022/07/19 01:40:54;;;;;;;9.27;5.57;;;18.40;99.90;;;;;;5025355;28;20436;-79
2022/07/19 01:43:20;;;;;;;11.48;5.32;;;18.30;99.90;;;;;;5052003;28;20143;-79
2022/07/19 01:45:45;;;;;;;8.30;5.65;;;18.30;99.90;;;;;;5013930;28;20040;-79
2022/07/19 01:48:11;;;;;;;10.27;5.38;;;18.30;99.90;;;;;;5053147;28;20056;-78
2022/07/19 01:50:37;;;;;;;10.32;5.95;;;18.30;99.90;;;;;;5050906;28;20048;-79
2022/07/19 01:53:02;;;;;;;10.27;5.93;;;18.20;99.90;;;;;;5016307;28;20474;-76
2022/07/19 01:55:28;;;;;;;12.70;5.78;;;18.20;99.90;;;;;;5037059;28;20488;-80
2022/07/19 01:57:54;;;;;;;10.85;5.55;;;18.20;99.90;;;;;;5053803;28;20064;-80
2022/07/19 02:00:19;;;;;;;12.32;5.50;;;18.20;99.90;;;;;;5026299;28;20072;-77
2022/07/19 02:02:45;;;;;;;10.05;5.70;;;18.10;99.90;;;;;;5037042;28;20033;-77
2022/07/19 02:05:11;;;;;;;10.35;5.28;;;18.10;99.90;;;;;;5002019;28;20045;-78
2022/07/19 02:11:36;;;;;;;6.97;4.93;;;18.00;99.90;;;;;;5045342;28;20098;-80
2022/07/19 02:14:03;;;;;;;10.02;5.70;;;18.00;99.90;;;;;;5047682;28;20045;-75
2022/07/19 02:16:30;;;;;;;8.73;5.50;;;17.90;99.90;;;;;;5070396;28;20053;-81
2022/07/19 02:18:55;;;;;;;10.10;6.05;;;18.00;99.90;;;;;;5030364;28;20152;-77
2022/07/19 02:21:21;;;;;;;12.48;6.63;;;18.00;99.90;;;;;;5064748;28;20507;-77
2022/07/19 02:23:47;;;;;;;11.77;6.30;;;18.10;99.90;;;;;;5051481;28;20065;-77
2022/07/19 02:26:13;;;;;;;12.88;6.30;;;18.00;99.90;;;;;;5051380;28;20143;-79
2022/07/19 02:28:38;;;;;;;11.45;6.60;;;18.00;99.90;;;;;;5054480;28;20067;-80
2022/07/19 02:31:04;;;;;;;8.90;6.25;;;18.00;99.90;;;;;;5042980;28;20048;-76
2022/07/19 02:33:30;;;;;;;10.57;5.97;;;18.00;99.90;;;;;;5022699;28;20041;-79
2022/07/19 02:35:56;;;;;;;11.35;6.28;;;18.10;99.90;;;;;;4999094;28;20058;-78
2022/07/19 02:38:22;;;;;;;13.75;5.85;;;17.90;99.90;;;;;;5018994;28;20417;-76
2022/07/19 02:40:49;;;;;;;15.98;6.40;;;17.90;99.90;;;;;;5000736;28;20133;-78
2022/07/19 02:43:15;;;;;;;9.98;6.45;;;17.90;99.90;;;;;;5012931;28;20064;-79
2022/07/19 02:45:41;;;;;;;7.18;5.63;;;17.90;99.90;;;;;;4987305;28;20041;-76
2022/07/19 02:48:09;;;;;;;11.38;5.57;;;17.90;99.90;;;;;;5022577;28;20037;-80
2022/07/19 02:50:35;;;;;;;14.75;6.22;;;17.90;99.90;;;;;;4994062;28;20050;-78
2022/07/19 02:53:04;;;;;;;9.93;6.22;;;17.90;99.90;;;;;;4998841;28;20104;-77
2022/07/19 02:55:31;;;;;;;13.80;7.05;;;17.90;99.90;;;;;;5016663;28;20041;-80
2022/07/19 02:57:56;;;;;;;9.40;6.30;;;17.90;99.90;;;;;;5012999;28;20048;-79
2022/07/19 03:00:22;;;;;;;13.15;7.32;;;17.90;99.90;;;;;;4993121;28;20148;-81
2022/07/19 03:02:48;;;;;;;12.77;7.13;;;18.00;99.90;;;;;;5010985;28;20060;-77
2022/07/19 03:05:14;;;;;;;11.60;7.22;;;18.00;99.90;;;;;;5010518;28;20029;-79
2022/07/19 03:07:40;;;;;;;14.70;7.78;;;18.00;99.90;;;;;;5012495;28;20112;-77
2022/07/19 03:10:06;;;;;;;10.27;6.93;;;18.00;99.90;;;;;;5027572;28;20128;-78
2022/07/19 03:12:35;;;;;;;12.27;7.35;;;18.10;99.90;;;;;;5025010;28;21710;-76
2022/07/19 03:15:01;;;;;;;10.82;7.45;;;18.10;99.90;;;;;;5007324;28;20049;-80
2022/07/19 03:17:26;;;;;;;14.23;7.70;;;18.10;99.90;;;;;;5046554;28;20033;-78
2022/07/19 03:19:52;;;;;;;12.65;7.60;;;18.10;99.90;;;;;;5013268;28;20134;-81
2022/07/19 03:22:18;;;;;;;12.05;7.85;;;18.20;99.90;;;;;;4995719;28;20045;-79
2022/07/19 03:24:43;;;;;;;18.05;7.43;;;18.20;99.90;;;;;;5029336;28;20044;-80
2022/07/19 03:27:09;;;;;;;12.10;7.57;;;18.20;99.90;;;;;;5029680;28;20049;-78
2022/07/19 03:29:35;;;;;;;14.55;6.78;;;18.20;99.90;;;;;;5029519;28;20037;-78
2022/07/19 03:32:00;;;;;;;12.23;6.85;;;18.20;99.90;;;;;;5027518;28;20079;-77
2022/07/19 03:34:28;;;;;;;12.63;7.10;;;18.20;99.90;;;;;;5000875;28;20416;-79
2022/07/19 03:41:02;;;;;;;12.40;7.13;;;18.30;99.90;;;;;;5052085;28;20961;-78
2022/07/19 03:43:28;;;;;;;10.43;6.88;;;18.20;99.90;;;;;;5043148;28;20037;-77
2022/07/19 03:45:56;;;;;;;12.40;7.35;;;18.20;99.90;;;;;;5045371;28;20426;-81
2022/07/19 03:48:23;;;;;;;13.15;7.82;;;18.30;99.90;;;;;;5035376;28;20131;-80
2022/07/19 03:50:49;;;;;;;12.75;6.95;;;18.40;99.90;;;;;;5025539;28;20105;-77
2022/07/19 03:53:14;;;;;;;10.45;6.97;;;18.40;99.90;;;;;;5036018;28;20120;-76
2022/07/19 03:55:40;;;;;;;10.95;7.10;;;18.50;99.90;;;;;;5060353;28;20076;-74
2022/07/19 03:58:06;;;;;;;11.57;6.43;;;18.50;99.90;;;;;;5068022;28;20033;-79
2022/07/19 04:00:32;;;;;;;15.90;6.97;;;18.50;99.90;;;;;;5030995;28;20029;-76
2022/07/19 04:03:00;;;;;;;12.38;7.25;;;18.60;99.90;;;;;;5058774;28;20045;-77
2022/07/19 04:05:26;;;;;;;11.75;6.40;;;18.60;99.90;;;;;;5012633;28;20176;-80
2022/07/19 04:07:53;;;;;;;15.52;6.43;;;18.60;99.90;;;;;;5013452;28;20128;-79
2022/07/19 04:10:18;;;;;;;14.15;6.82;;;18.60;99.90;;;;;;5033326;28;20059;-79
2022/07/19 04:12:44;;;;;;;13.20;6.70;;;18.60;99.90;;;;;;5032289;28;20507;-78
2022/07/19 04:15:10;;;;;;;10.18;6.68;;;18.70;99.90;;;;;;5030179;28;20047;-79
2022/07/19 04:17:35;;;;;;;11.27;6.45;;;18.70;99.90;;;;;;5029180;28;20037;-79
2022/07/19 04:20:05;;;;;;;14.95;6.57;;;18.70;99.90;;;;;;5018427;28;20037;-79
2022/07/19 04:22:30;;;;;;;14.70;6.88;;;18.80;99.90;;;;;;5016107;28;20041;-78
2022/07/19 04:24:56;;;;;;;11.10;6.65;;;18.80;99.90;;;;;;5049648;28;20119;-79
2022/07/19 04:27:22;;;;;;;8.52;6.47;;;18.90;99.90;;;;;;5029642;28;20045;-78
2022/07/19 04:29:47;;;;;;;14.18;6.82;;;18.90;99.90;;;;;;5082356;28;20049;-78
2022/07/19 04:32:14;;;;;;;14.95;6.75;;;19.00;99.90;;;;;;5034768;28;20041;-78
2022/07/19 04:34:40;;;;;;;13.65;6.22;;;19.00;99.90;;;;;;5017132;28;20048;-80
2022/07/19 04:37:05;;;;;;;13.10;6.80;;;19.10;99.90;;;;;;5030816;28;20037;-80
2022/07/19 04:39:31;;;;;;;11.65;6.22;;;19.20;99.90;;;;;;5034915;28;20029;-76
2022/07/19 04:41:57;;;;;;;15.52;6.13;;;19.20;99.90;;;;;;5068560;28;20179;-76
2022/07/19 04:44:22;;;;;;;12.15;6.32;;;19.40;99.90;;;;;;5069665;28;20457;-77
2022/07/19 04:46:48;;;;;;;11.05;6.38;;;19.50;99.90;;;;;;5030875;28;20045;-81
2022/07/19 04:49:14;;;;;;;12.43;6.50;;;19.60;99.90;;;;;;5054376;28;20085;-79
2022/07/19 04:51:39;;;;;;;11.02;6.72;;;19.70;99.90;;;;;;5035138;28;20106;-76
2022/07/19 04:54:07;;;;;;;10.73;6.18;;;19.70;99.90;;;;;;5050097;28;20045;-80
2022/07/19 04:56:33;;;;;;;11.27;6.50;;;19.80;99.90;;;;;;5069875;28;20488;-81
2022/07/19 04:58:59;;;;;;;11.43;6.30;;;19.80;99.90;;;;;;5024956;28;20056;-79
2022/07/19 05:01:25;;;;;;;16.75;6.13;;;19.90;99.90;;;;;;5020302;28;20067;-79
2022/07/19 05:03:50;;;;;;;11.55;6.53;;;20.00;99.90;;;;;;5019624;28;20029;-79
2022/07/19 05:06:16;;;;;;;11.48;6.13;;;20.10;99.90;;;;;;5027283;28;20048;-76
2022/07/19 05:09:21;;;;;;;8.20;5.88;;;20.10;99.90;;;;;;5023463;28;20037;-77
2022/07/19 05:11:47;;;;;;;54.50;6.93;;;20.20;99.90;;;;;;5058833;28;20044;-76
2022/07/19 05:14:12;;;;;;;13.00;6.20;;;20.50;99.90;;;;;;5047863;28;20052;-77
2022/07/19 05:16:39;;;;;;;14.27;5.55;;;20.50;99.90;;;;;;5054162;28;20053;-78
2022/07/19 05:19:05;;;;;;;11.38;5.70;;;20.60;99.90;;;;;;5065393;28;20083;-75
2022/07/19 05:21:30;;;;;;;13.50;5.70;;;20.70;99.90;;;;;;5029977;28;20060;-74
2022/07/19 05:23:56;;;;;;;11.07;5.50;;;20.80;99.90;;;;;;5029574;28;20104;-78
2022/07/19 05:26:21;;;;;;;8.32;5.10;;;20.80;99.90;;;;;;5025763;28;20053;-73
2022/07/19 05:28:47;;;;;;;11.00;5.35;;;20.90;99.90;;;;;;5058457;28;20482;-74
2022/07/19 05:31:13;;;;;;;9.50;5.72;;;21.00;99.90;;;;;;5026351;28;20510;-77
2022/07/19 05:33:38;;;;;;;12.50;5.70;;;21.10;99.90;;;;;;5010727;28;20519;-79
2022/07/19 05:36:05;;;;;;;14.02;5.40;;;21.20;99.90;;;;;;5025396;28;20049;-78
2022/07/19 05:38:34;;;;;;;11.40;5.22;;;21.20;99.90;;;;;;5026056;28;20384;-74
2022/07/19 05:41:00;;;;;;;7.30;5.00;;;21.30;99.90;;;;;;5059102;28;20032;-77
2022/07/19 05:43:26;;;;;;;11.02;5.00;;;21.30;99.90;;;;;;5056287;28;20055;-74
2022/07/19 05:45:51;;;;;;;10.77;5.18;;;21.40;99.90;;;;;;5025427;28;20033;-75
2022/07/19 05:48:17;;;;;;;12.85;5.30;;;21.40;99.90;;;;;;5023231;28;21128;-75
2022/07/19 05:50:42;;;;;;;10.52;5.07;;;21.50;99.90;;;;;;5026514;28;20495;-81
2022/07/19 05:53:08;;;;;;;13.00;5.30;;;21.50;99.90;;;;;;5043259;28;20499;-77
2022/07/19 05:55:34;;;;;;;10.45;4.93;;;21.60;99.90;;;;;;5036947;28;20076;-76
2022/07/19 05:57:59;;;;;;;10.85;5.10;;;21.70;99.90;;;;;;5039736;28;20052;-76
2022/07/19 06:00:25;;;;;;;11.05;5.30;;;21.80;99.90;;;;;;5020230;28;20123;-76
2022/07/19 06:02:51;;;;;;;11.70;4.68;;;21.80;99.90;;;;;;5022994;28;20108;-77
2022/07/19 06:05:17;;;;;;;9.88;4.80;;;21.90;99.90;;;;;;5022366;28;20041;-78
2022/07/19 06:07:42;;;;;;;8.32;4.80;;;22.00;99.90;;;;;;5023903;28;20049;-74
2022/07/19 06:10:08;;;;;;;9.15;4.63;;;22.10;99.90;;;;;;5041505;28;20044;-77
2022/07/19 06:12:34;;;;;;;9.50;4.80;;;22.20;99.90;;;;;;5024721;28;20507;-80
2022/07/19 06:15:00;;;;;;;6.97;4.63;;;22.30;99.90;;;;;;5055811;28;20099;-78
2022/07/19 06:17:25;;;;;;;10.90;4.35;;;22.30;99.90;;;;;;5013143;28;20060;-81
2022/07/19 06:19:51;;;;;;;9.65;4.90;;;22.30;99.90;;;;;;5052120;28;20101;-81
2022/07/19 06:22:17;;;;;;;8.15;4.75;;;22.50;99.90;;;;;;5033648;28;20048;-79
2022/07/19 06:24:42;;;;;;;12.20;4.45;;;22.50;99.90;;;;;;5051182;28;20370;-80
2022/07/19 06:27:08;;;;;;;12.93;4.53;;;22.70;99.90;;;;;;5033789;28;20053;-80
2022/07/19 06:29:34;;;;;;;10.55;4.90;;;22.70;99.90;;;;;;5037289;28;20484;-79
2022/07/19 06:31:59;;;;;;;10.20;5.00;;;22.80;99.90;;;;;;5039957;28;20493;-79
2022/07/19 06:34:25;;;;;;;10.20;4.78;;;22.90;99.90;;;;;;5046095;28;20404;-81
2022/07/19 06:36:50;;;;;;;15.75;5.03;;;23.00;99.90;;;;;;5036884;28;20593;-79
2022/07/19 06:39:19;;;;;;;9.23;4.38;;;23.10;99.90;;;;;;5033642;28;20430;-80
2022/07/19 06:41:46;;;;;;;8.20;4.47;;;23.20;99.90;;;;;;5025580;28;20057;-82
2022/07/19 06:44:12;;;;;;;10.15;4.85;;;23.20;99.90;;;;;;5024947;28;20457;-77
2022/07/19 06:46:38;;;;;;;10.85;4.45;;;23.30;99.90;;;;;;5030914;28;20071;-78
2022/07/19 06:49:03;;;;;;;7.75;4.40;;;23.30;99.90;;;;;;5035325;28;20040;-79
2022/07/19 06:51:29;;;;;;;6.25;4.18;;;23.40;99.90;;;;;;5050684;28;20079;-80
2022/07/19 06:53:54;;;;;;;12.30;4.35;;;23.50;99.90;;;;;;5030783;28;20059;-80
2022/07/19 06:56:20;;;;;;;14.05;4.50;;;23.50;99.90;;;;;;5049598;28;20053;-82
2022/07/19 06:58:46;;;;;;;11.63;4.50;;;23.60;99.90;;;;;;5034579;28;20049;-78
2022/07/19 07:01:11;;;;;;;11.98;4.20;;;23.70;99.90;;;;;;5033904;28;20124;-79
2022/07/19 07:03:38;;;;;;;7.57;4.40;;;23.80;99.90;;;;;;5032486;28;20472;-79
2022/07/19 07:06:06;;;;;;;8.15;4.35;;;23.90;99.90;;;;;;5034205;28;20052;-77
2022/07/19 07:08:32;;;;;;;13.18;4.30;;;23.90;99.90;;;;;;5065643;28;20037;-79
2022/07/19 07:10:57;;;;;;;10.13;4.55;;;24.00;99.90;;;;;;5018013;28;20110;-79
2022/07/19 07:13:23;;;;;;;17.48;4.50;;;24.10;99.90;;;;;;5032405;28;20124;-78
2022/07/19 07:15:49;;;;;;;10.30;4.43;;;24.10;99.90;;;;;;5017580;28;20068;-80
2022/07/19 07:18:14;;;;;;;6.07;3.85;;;24.20;99.90;;;;;;5015793;28;20045;-82
2022/07/19 07:20:40;;;;;;;8.18;4.30;;;24.20;99.90;;;;;;5016047;28;20044;-80
2022/07/19 07:23:26;;;;;;;7.65;4.20;;;24.30;99.90;;;;;;5040839;28;20052;-79
2022/07/19 07:25:53;;;;;;;7.10;4.25;;;24.40;99.90;;;;;;5015300;28;20045;-75
2022/07/19 07:28:20;;;;;;;7.78;4.60;;;24.50;99.90;;;;;;5060375;28;20184;-78
2022/07/19 07:30:45;;;;;;;6.82;4.15;;;24.70;99.90;;;;;;5061191;28;20463;-75
2022/07/19 07:33:11;;;;;;;6.93;4.13;;;24.80;99.90;;;;;;5044824;28;20048;-75
2022/07/19 07:35:37;;;;;;;7.68;4.10;;;24.90;99.90;;;;;;5056577;28;20053;-77
2022/07/19 07:38:02;;;;;;;8.00;3.33;;;25.00;99.90;;;;;;5005035;28;20084;-79
2022/07/19 07:40:28;;;;;;;10.02;4.07;;;25.10;99.90;;;;;;5027444;28;20036;-77
2022/07/19 07:42:54;;;;;;;7.45;3.90;;;25.10;99.90;;;;;;5024457;28;20527;-77
2022/07/19 07:45:19;;;;;;;7.07;3.65;;;25.20;99.90;;;;;;5050102;28;20130;-77
2022/07/19 07:47:45;;;;;;;10.00;3.83;;;25.30;99.90;;;;;;5034302;28;20052;-76
2022/07/19 07:50:11;;;;;;;6.18;4.05;;;25.40;99.90;;;;;;5037511;28;20059;-77
2022/07/19 07:52:57;;;;;;;6.28;3.92;;;25.60;99.90;;;;;;5069322;28;20134;-77
2022/07/19 07:55:23;;;;;;;5.75;3.22;;;25.70;99.90;;;;;;5085721;28;20053;-77
2022/07/19 07:57:48;;;;;;;8.95;3.85;;;25.70;99.90;;;;;;5040470;28;20117;-76
2022/07/19 08:00:14;;;;;;;10.35;4.07;;;25.80;99.90;;;;;;5029842;28;20076;-78
2022/07/19 08:02:41;;;;;;;7.63;3.78;;;25.90;99.90;;;;;;5036426;28;20048;-78
2022/07/19 08:05:08;;;;;;;6.20;3.45;;;26.00;99.90;;;;;;5039212;28;20124;-75
2022/07/19 08:07:34;;;;;;;13.55;3.90;;;26.10;99.90;;;;;;5055632;28;20040;-74
2022/07/19 08:10:00;;;;;;;10.50;3.80;;;26.20;99.90;;;;;;5020912;28;20047;-77
2022/07/19 08:12:26;;;;;;;11.57;3.67;;;26.30;99.90;;;;;;5062143;28;20057;-77
2022/07/19 08:14:51;;;;;;;4.72;3.55;;;26.40;99.90;;;;;;5054843;28;20459;-78
2022/07/19 08:17:17;;;;;;;15.38;3.60;;;26.50;99.90;;;;;;5038323;28;20128;-76
2022/07/19 08:19:43;;;;;;;9.05;3.50;;;26.60;99.90;;;;;;5073230;28;20208;-78
2022/07/19 08:22:08;;;;;;;10.02;3.50;;;26.70;99.90;;;;;;5053956;28;20485;-78
2022/07/19 08:24:34;;;;;;;6.90;3.17;;;26.90;99.90;;;;;;5035181;28;20145;-76
2022/07/19 08:27:00;;;;;;;11.07;3.60;;;27.00;99.90;;;;;;5033312;28;20072;-76
2022/07/19 08:29:26;;;;;;;7.15;3.40;;;27.10;99.90;;;;;;5022305;28;20540;-77
2022/07/19 08:31:51;;;;;;;8.80;3.35;;;27.20;99.90;;;;;;5038001;28;20064;-78
2022/07/19 08:34:17;;;;;;;8.25;3.47;;;27.40;99.90;;;;;;5056284;28;20053;-76
2022/07/19 08:36:42;;;;;;;7.75;3.35;;;27.50;99.90;;;;;;5073825;28;20117;-78
2022/07/19 08:39:08;;;;;;;7.05;3.20;;;27.60;99.90;;;;;;5058407;28;20135;-76
2022/07/19 08:41:34;;;;;;;7.25;3.58;;;27.70;99.90;;;;;;5050607;28;20040;-76
2022/07/19 08:44:03;;;;;;;5.70;3.30;;;27.90;99.90;;;;;;5033974;28;20089;-81
2022/07/19 08:46:29;;;;;;;5.28;3.20;;;28.00;99.90;;;;;;5067954;28;20053;-77
2022/07/19 08:48:55;;;;;;;8.70;3.28;;;28.00;99.90;;;;;;5046342;28;20048;-79
2022/07/19 08:51:22;;;;;;;10.75;2.90;;;28.20;99.90;;;;;;5046874;28;20049;-75
2022/07/19 08:53:51;;;;;;;8.50;3.13;;;28.30;99.90;;;;;;5055916;28;20804;-77
2022/07/19 08:59:04;;;;;;;7.60;3.42;;;28.50;99.90;;;;;;5080049;28;20037;-80
2022/07/19 09:01:29;;;;;;;10.63;3.13;;;28.60;99.70;;;;;;5079646;28;20037;-79
2022/07/19 09:04:05;;;;;;;8.90;3.20;;;28.80;99.30;;;;;;5055347;28;20086;-77
2022/07/19 09:06:41;;;;;;;8.70;3.55;;;28.90;98.90;;;;;;5055489;28;20564;-78
2022/07/19 09:09:08;;;;;;;7.85;3.05;;;29.10;99.50;;;;;;5048453;28;20135;-78
2022/07/19 09:11:37;;;;;;;4.78;2.80;;;29.20;99.10;;;;;;5057444;28;20036;-79
2022/07/19 09:14:05;;;;;;;6.28;2.80;;;29.40;99.30;;;;;;5074235;28;20548;-77
2022/07/19 09:17:03;;;;;;;5.63;2.90;;;29.40;98.80;;;;;;5056432;28;20383;-77
2022/07/19 09:19:38;;;;;;;7.78;2.67;;;29.60;98.30;;;;;;5020861;28;20106;-78
2022/07/19 09:22:12;;;;;;;8.32;3.22;;;29.80;98.20;;;;;;5072495;28;20048;-75
2022/07/19 09:24:43;;;;;;;5.72;2.70;;;29.90;98.20;;;;;;5068548;28;20055;-78
2022/07/19 09:27:15;;;;;;;5.47;2.55;;;30.00;97.70;;;;;;5049295;28;20063;-79
2022/07/19 09:29:45;;;;;;;3.97;2.50;;;30.20;97.80;;;;;;5062252;28;20071;-76
2022/07/19 09:32:16;;;;;;;4.90;2.67;;;30.40;98.30;;;;;;5057099;28;20090;-78
2022/07/19 09:34:59;;;;;;;6.57;2.47;;;30.50;97.60;;;;;;5061194;28;20057;-77
2022/07/19 09:37:29;;;;;;;4.35;2.45;;;30.60;97.30;;;;;;5068478;28;20131;-79
2022/07/19 09:39:57;;;;;;;4.10;2.47;;;30.80;97.10;;;;;;5086174;28;20036;-76
2022/07/19 09:42:43;;;;;;;7.38;2.10;;;31.00;97.30;;;;;;5070631;28;20077;-76
2022/07/19 09:45:13;;;;;;;4.22;2.30;;;31.00;97.00;;;;;;5066676;28;20049;-77
2022/07/19 09:47:41;;;;;;;3.80;1.80;;;31.00;96.10;;;;;;5052051;28;20144;-76
2022/07/19 09:50:14;;;;;;;5.80;2.15;;;31.00;95.50;;;;;;5065474;28;20095;-78
2022/07/19 09:52:40;;;;;;;3.67;2.17;;;31.10;95.70;;;;;;5050479;28;20055;-77
2022/07/19 09:55:08;;;;;;;7.65;2.10;;;31.20;95.50;;;;;;5032370;28;20163;-77
2022/07/19 09:57:36;;;;;;;6.70;2.00;;;31.30;95.50;;;;;;5076556;28;20139;-78
2022/07/19 10:00:07;;;;;;;5.28;2.28;;;31.40;95.30;;;;;;5061260;28;20120;-76
2022/07/19 10:02:38;;;;;;;9.13;1.90;;;31.50;95.30;;;;;;5032682;28;20037;-77
2022/07/19 10:05:05;;;;;;;7.85;1.90;;;31.70;94.40;;;;;;5059591;28;20040;-77
2022/07/19 10:07:34;;;;;;;7.85;2.53;;;31.80;93.90;;;;;;5044200;28;20044;-78
2022/07/19 10:10:06;;;;;;;6.05;1.90;;;31.90;93.40;;;;;;5041899;28;20052;-75
2022/07/19 10:12:37;;;;;;;4.35;2.13;;;32.00;93.20;;;;;;5074924;28;20059;-78
2022/07/19 10:15:04;;;;;;;8.80;1.88;;;32.00;93.20;;;;;;5027378;28;20064;-79
2022/07/19 10:17:52;;;;;;;5.95;1.80;;;32.00;93.00;;;;;;5062352;28;20048;-77
2022/07/19 10:20:25;;;;;;;7.25;2.10;;;32.20;93.00;;;;;;5068780;28;20071;-77
2022/07/19 10:22:57;;;;;;;5.93;1.95;;;32.20;93.00;;;;;;5036917;28;20052;-77
2022/07/19 10:25:23;;;;;;;4.30;2.10;;;32.50;93.40;;;;;;5024590;28;20088;-77
2022/07/19 10:27:54;;;;;;;6.55;2.10;;;32.70;93.80;;;;;;5066806;28;20075;-78
2022/07/19 10:30:23;;;;;;;5.47;2.20;;;32.90;93.10;;;;;;5051269;28;20067;-78
2022/07/19 10:32:51;;;;;;;7.65;2.20;;;33.10;91.90;;;;;;5086477;28;20056;-79
2022/07/19 10:35:23;;;;;;;11.05;2.10;;;33.30;92.00;;;;;;5055761;28;20057;-77
2022/07/19 10:37:51;;;;;;;7.45;2.00;;;33.30;91.50;;;;;;5066728;28;20087;-77
2022/07/19 10:40:36;;;;;;;6.40;2.25;;;33.30;91.60;;;;;;5053180;28;20053;-75
2022/07/19 10:43:07;;;;;;;5.75;1.70;;;33.40;91.60;;;;;;5052827;28;20475;-77
2022/07/19 10:45:33;;;;;;;8.50;2.13;;;33.40;91.00;;;;;;5050629;28;20379;-78
2022/07/19 10:48:01;;;;;;;6.00;1.88;;;33.70;91.30;;;;;;5063643;28;20082;-76
2022/07/19 10:50:53;;;;;;;9.93;1.90;;;33.70;90.80;;;;;;5059059;28;20033;-78
2022/07/19 10:53:38;;;;;;;5.85;2.20;;;33.80;90.20;;;;;;5032064;28;20053;-74
2022/07/19 10:56:16;;;;;;;5.88;1.83;;;34.00;90.60;;;;;;5032521;28;20105;-77
2022/07/19 10:58:51;;;;;;;5.85;2.10;;;34.10;90.30;;;;;;5009676;28;21378;-77
2022/07/19 11:01:19;;;;;;;3.38;2.00;;;34.30;90.20;;;;;;5001593;28;20033;-78
2022/07/19 11:03:50;;;;;;;6.75;2.00;;;34.40;89.80;;;;;;5006084;28;20439;-77
2022/07/19 11:06:27;;;;;;;4.70;1.95;;;34.60;89.60;;;;;;5016735;28;20469;-78
2022/07/19 11:08:57;;;;;;;3.10;1.60;;;34.90;90.30;;;;;;5015501;28;20131;-77
2022/07/19 11:11:26;;;;;;;4.78;2.20;;;35.00;89.00;;;;;;5025303;28;20056;-77
2022/07/19 11:13:54;;;;;;;5.10;1.98;;;35.10;87.50;;;;;;5047680;28;20142;-77
2022/07/19 11:16:20;;;;;;;7.30;1.70;;;35.10;88.10;;;;;;5032370;28;20061;-79
2022/07/19 11:18:47;;;;;;;4.40;1.85;;;35.10;86.60;;;;;;5016843;28;20092;-83
2022/07/19 11:21:16;;;;;;;6.72;1.77;;;35.30;87.80;;;;;;5046854;28;20377;-77
2022/07/19 11:23:43;;;;;;;3.58;1.80;;;35.30;86.50;;;;;;5049277;28;20045;-77
2022/07/19 11:26:39;;;;;;;3.45;1.50;;;35.40;86.40;;;;;;5029619;28;20071;-78
2022/07/19 11:29:05;;;;;;;2.88;1.50;;;35.50;85.70;;;;;;5021450;28;20049;-78
2022/07/19 11:31:34;;;;;;;5.88;1.80;;;35.60;85.00;;;;;;5023370;28;22084;-77
2022/07/19 11:34:01;;;;;;;5.70;1.70;;;35.80;86.30;;;;;;4934794;28;20419;-78
2022/07/19 11:36:27;;;;;;;6.15;1.85;;;35.80;83.40;;;;;;5034211;28;20052;-78
2022/07/19 11:38:58;;;;;;;2.30;1.50;;;36.00;83.90;;;;;;5045465;28;20037;-78
2022/07/19 11:41:30;;;;;;;7.95;1.88;;;36.30;84.20;;;;;;5040033;28;20089;-80
2022/07/19 11:44:05;;;;;;;7.07;1.70;;;36.40;83.80;;;;;;5041940;28;20060;-77
2022/07/19 11:46:40;;;;;;;5.30;1.60;;;36.50;84.60;;;;;;5041705;28;20107;-77
2022/07/19 11:49:08;;;;;;;8.07;1.55;;;36.70;83.90;;;;;;5053567;28;20071;-79
2022/07/19 11:51:34;;;;;;;6.63;1.35;;;36.90;83.90;;;;;;5051740;28;20503;-79
2022/07/19 11:54:02;;;;;;;7.10;1.30;;;37.20;81.90;;;;;;5075793;28;20029;-78
2022/07/19 11:56:33;;;;;;;1.83;1.30;;;37.30;81.10;;;;;;5071327;28;20033;-78
2022/07/19 11:59:05;;;;;;;6.32;1.25;;;37.50;80.40;;;;;;5053216;28;20087;-77
2022/07/19 12:01:39;;;;;;;3.15;1.25;;;37.40;79.70;;;;;;5055665;28;20109;-78
2022/07/19 12:04:11;;;;;;;3.08;1.20;;;37.70;79.70;;;;;;5059812;28;20086;-77
2022/07/19 12:06:43;;;;;;;8.10;1.48;;;37.90;79.60;;;;;;5022094;28;20099;-79
2022/07/19 12:12:49;;;;;;;6.85;1.52;;;38.00;78.50;;;;;;5068074;28;20036;-77
2022/07/19 12:15:15;;;;;;;2.17;1.30;;;38.20;78.60;;;;;;5050449;28;20045;-76
2022/07/19 12:17:55;;;;;;;2.03;1.50;;;38.30;77.00;;;;;;5070102;28;20142;-79
2022/07/19 12:20:20;;;;;;;2.72;1.30;;;38.50;76.30;;;;;;5050541;28;20036;-79
2022/07/19 12:22:46;;;;;;;7.57;1.65;;;38.40;76.00;;;;;;5043185;28;20429;-78
2022/07/19 12:25:12;;;;;;;4.68;2.28;;;38.50;76.60;;;;;;5029106;28;20615;-78
2022/07/19 12:27:40;;;;;;;2.35;1.40;;;38.70;76.30;;;;;;5082671;28;20044;-78
2022/07/19 12:30:06;;;;;;;7.63;1.40;;;38.60;76.00;;;;;;5029759;28;20053;-79
2022/07/19 12:32:45;;;;;;;5.85;1.42;;;38.70;76.00;;;;;;5085734;28;20046;-78
2022/07/19 12:35:15;;;;;;;3.75;1.35;;;38.70;75.30;;;;;;5078748;28;20052;-80
2022/07/19 12:37:46;;;;;;;8.32;1.95;;;38.90;75.30;;;;;;5049711;28;20189;-79
2022/07/19 12:40:22;;;;;;;3.78;1.60;;;39.00;75.40;;;;;;5052462;28;20119;-80
2022/07/19 12:43:00;;;;;;;4.28;1.70;;;39.10;75.20;;;;;;5049089;28;20036;-78
2022/07/19 12:45:34;;;;;;;3.45;1.67;;;39.30;75.80;;;;;;5030640;28;20047;-79
2022/07/19 12:48:05;;;;;;;9.75;2.00;;;39.30;75.30;;;;;;5036095;28;20052;-78
2022/07/19 12:50:36;;;;;;;6.10;1.70;;;39.40;76.20;;;;;;5068603;28;20052;-80
2022/07/19 12:53:21;;;;;;;8.30;1.77;;;39.40;74.70;;;;;;5046578;28;20036;-80
2022/07/19 12:55:49;;;;;;;4.65;1.70;;;39.50;74.80;;;;;;5033369;28;20064;-79
2022/07/19 13:01:01;;;;;;;4.05;1.55;;;40.00;74.70;;;;;;5051107;28;20040;-78
2022/07/19 13:03:27;;;;;;;2.95;1.80;;;40.00;74.00;;;;;;5051175;28;20095;-79
2022/07/19 13:05:52;;;;;;;4.32;1.52;;;40.40;74.50;;;;;;5068930;28;20080;-80
2022/07/19 13:08:18;;;;;;;1.88;1.30;;;40.40;73.00;;;;;;5062591;28;20051;-80